sensor_id;sensor_type;location;lat;lon;timestamp;pressure;altitude;pressure_sealevel;temperature;humidity
58082;BME280;43876;55.576;38.242;2022-07-09T00:01:25;100028.44;;;17.98;70.37
58082;BME280;43876;55.576;38.242;2022-07-09T00:03:52;100030.91;;;18.06;70.02
58082;BME280;43876;55.576;38.242;2022-07-09T00:06:19;100030.03;;;18.05;69.80
58082;BME280;43876;55.576;38.242;2022-07-09T00:08:46;100011.72;;;17.96;69.86
58082;BME280;43876;55.576;38.242;2022-07-09T00:11:13;100025.78;;;17.98;69.93
58082;BME280;43876;55.576;38.242;2022-07-09T00:13:40;100031.03;;;17.99;69.63
58082;BME280;43876;55.576;38.242;2022-07-09T00:16:07;100011.94;;;17.88;69.58
58082;BME280;43876;55.576;38.242;2022-07-09T00:18:34;100025.03;;;17.93;69.68
58082;BME280;43876;55.576;38.242;2022-07-09T00:21:02;100029.47;;;17.92;69.62
58082;BME280;43876;55.576;38.242;2022-07-09T00:23:29;100010.03;;;17.93;69.37
58082;BME280;43876;55.576;38.242;2022-07-09T00:42:18;100038.25;;;18.96;65.80
58082;BME280;43876;55.576;38.242;2022-07-09T00:44:45;100016.25;;;18.61;67.08
58082;BME280;43876;55.576;38.242;2022-07-09T00:47:13;100023.72;;;18.45;67.92
58082;BME280;43876;55.576;38.242;2022-07-09T00:49:41;100008.94;;;18.36;67.46
58082;BME280;43876;55.576;38.242;2022-07-09T00:52:11;100026.41;;;18.44;67.27
58082;BME280;43876;55.576;38.242;2022-07-09T00:54:40;100030.88;;;18.41;67.01
58082;BME280;43876;55.576;38.242;2022-07-09T00:57:09;100027.31;;;18.42;66.91
58082;BME280;43876;55.576;38.242;2022-07-09T00:59:38;100016.69;;;18.44;67.37
58082;BME280;43876;55.576;38.242;2022-07-09T01:02:08;100023.72;;;18.45;67.05
58082;BME280;43876;55.576;38.242;2022-07-09T01:04:36;100026.28;;;18.48;66.55
58082;BME280;43876;55.576;38.242;2022-07-09T01:07:05;100019.94;;;18.54;66.25
58082;BME280;43876;55.576;38.242;2022-07-09T01:09:32;100031.13;;;18.65;65.89
58082;BME280;43876;55.576;38.242;2022-07-09T01:11:59;100021.25;;;18.72;65.35
58082;BME280;43876;55.576;38.242;2022-07-09T01:14:27;100006.13;;;18.75;65.09
58082;BME280;43876;55.576;38.242;2022-07-09T01:16:59;100014.97;;;18.76;65.09
58082;BME280;43876;55.576;38.242;2022-07-09T01:19:28;100006.69;;;18.88;65.25
58082;BME280;43876;55.576;38.242;2022-07-09T01:21:55;100004.22;;;18.82;65.47
58082;BME280;43876;55.576;38.242;2022-07-09T01:24:29;100020.31;;;19.06;64.39
58082;BME280;43876;55.576;38.242;2022-07-09T01:26:56;100017.22;;;19.21;63.71
58082;BME280;43876;55.576;38.242;2022-07-09T01:29:23;100022.00;;;19.38;63.58
58082;BME280;43876;55.576;38.242;2022-07-09T01:31:50;99975.63;;;19.24;63.99
58082;BME280;43876;55.576;38.242;2022-07-09T01:34:17;100024.28;;;19.50;63.88
58082;BME280;43876;55.576;38.242;2022-07-09T01:36:44;99992.63;;;19.46;64.07
58082;BME280;43876;55.576;38.242;2022-07-09T01:39:11;99979.53;;;19.41;63.80
58082;BME280;43876;55.576;38.242;2022-07-09T01:41:38;100021.84;;;19.72;63.51
58082;BME280;43876;55.576;38.242;2022-07-09T01:44:06;100007.44;;;19.81;63.13
58082;BME280;43876;55.576;38.242;2022-07-09T01:46:34;100009.03;;;19.87;62.97
58082;BME280;43876;55.576;38.242;2022-07-09T01:49:02;100033.31;;;20.01;62.65
58082;BME280;43876;55.576;38.242;2022-07-09T01:51:29;100024.03;;;20.14;62.46
58082;BME280;43876;55.576;38.242;2022-07-09T01:53:56;100026.94;;;20.33;62.08
58082;BME280;43876;55.576;38.242;2022-07-09T01:56:24;100018.28;;;20.53;61.21
58082;BME280;43876;55.576;38.242;2022-07-09T01:58:51;100024.25;;;20.85;60.48
58082;BME280;43876;55.576;38.242;2022-07-09T02:01:18;100017.84;;;21.14;59.86
58082;BME280;43876;55.576;38.242;2022-07-09T02:03:45;100020.25;;;21.45;58.97
58082;BME280;43876;55.576;38.242;2022-07-09T02:06:12;100009.34;;;21.75;58.53
58082;BME280;43876;55.576;38.242;2022-07-09T02:08:39;100001.03;;;22.05;57.66
58082;BME280;43876;55.576;38.242;2022-07-09T02:11:06;99996.38;;;22.53;56.35
58082;BME280;43876;55.576;38.242;2022-07-09T02:13:33;99987.59;;;23.85;51.99
58082;BME280;43876;55.576;38.242;2022-07-09T02:16:21;99990.47;;;25.82;47.09
58082;BME280;43876;55.576;38.242;2022-07-09T02:18:49;99972.69;;;26.86;44.01
58082;BME280;43876;55.576;38.242;2022-07-09T02:21:17;99996.59;;;28.01;41.79
58082;BME280;43876;55.576;38.242;2022-07-09T02:23:44;99984.38;;;28.88;39.77
58082;BME280;43876;55.576;38.242;2022-07-09T02:26:12;99994.84;;;29.42;38.64
58082;BME280;43876;55.576;38.242;2022-07-09T02:28:39;99985.63;;;29.70;37.50
58082;BME280;43876;55.576;38.242;2022-07-09T02:31:06;99977.97;;;29.64;37.43
58082;BME280;43876;55.576;38.242;2022-07-09T02:33:33;99966.84;;;29.45;38.26
58082;BME280;43876;55.576;38.242;2022-07-09T02:36:00;99974.81;;;29.46;38.45
58082;BME280;43876;55.576;38.242;2022-07-09T02:38:27;100004.44;;;28.44;40.55
58082;BME280;43876;55.576;38.242;2022-07-09T02:40:54;99972.97;;;27.39;42.46
58082;BME280;43876;55.576;38.242;2022-07-09T02:43:21;99989.94;;;27.93;41.58
58082;BME280;43876;55.576;38.242;2022-07-09T02:45:48;99988.78;;;27.00;43.48
58082;BME280;43876;55.576;38.242;2022-07-09T02:48:18;99998.84;;;25.91;45.02
58082;BME280;43876;55.576;38.242;2022-07-09T02:50:45;99997.75;;;24.99;46.01
58082;BME280;43876;55.576;38.242;2022-07-09T02:53:12;99998.31;;;24.37;47.66
58082;BME280;43876;55.576;38.242;2022-07-09T02:55:39;99961.47;;;23.91;49.43
58082;BME280;43876;55.576;38.242;2022-07-09T02:58:05;99996.06;;;23.76;49.35
58082;BME280;43876;55.576;38.242;2022-07-09T03:00:32;99995.25;;;23.55;50.18
58082;BME280;43876;55.576;38.242;2022-07-09T03:02:59;100001.53;;;23.54;51.96
58082;BME280;43876;55.576;38.242;2022-07-09T03:05:26;100001.94;;;23.63;52.34
58082;BME280;43876;55.576;38.242;2022-07-09T03:07:53;99998.78;;;23.55;51.71
58082;BME280;43876;55.576;38.242;2022-07-09T03:10:21;100014.72;;;23.38;52.78
58082;BME280;43876;55.576;38.242;2022-07-09T03:12:48;99995.88;;;23.23;50.80
58082;BME280;43876;55.576;38.242;2022-07-09T03:15:15;99986.13;;;23.22;50.76
58082;BME280;43876;55.576;38.242;2022-07-09T03:17:45;99981.72;;;23.02;51.00
58082;BME280;43876;55.576;38.242;2022-07-09T03:20:12;99995.13;;;23.01;52.22
58082;BME280;43876;55.576;38.242;2022-07-09T03:22:40;99996.50;;;23.09;52.56
58082;BME280;43876;55.576;38.242;2022-07-09T03:25:08;99988.94;;;23.00;52.57
58082;BME280;43876;55.576;38.242;2022-07-09T03:27:35;100005.78;;;22.99;52.44
58082;BME280;43876;55.576;38.242;2022-07-09T03:30:03;99985.94;;;22.87;52.05
58082;BME280;43876;55.576;38.242;2022-07-09T03:32:31;99996.31;;;22.94;51.55
58082;BME280;43876;55.576;38.242;2022-07-09T03:34:57;99996.53;;;22.89;50.91
58082;BME280;43876;55.576;38.242;2022-07-09T03:37:25;99992.84;;;22.92;51.59
58082;BME280;43876;55.576;38.242;2022-07-09T03:39:52;99994.56;;;23.32;50.91
58082;BME280;43876;55.576;38.242;2022-07-09T03:42:18;99994.19;;;23.78;49.63
58082;BME280;43876;55.576;38.242;2022-07-09T03:44:46;100002.63;;;24.22;49.27
58082;BME280;43876;55.576;38.242;2022-07-09T03:47:13;100012.53;;;24.55;48.70
58082;BME280;43876;55.576;38.242;2022-07-09T03:49:40;99993.22;;;24.67;48.47
58082;BME280;43876;55.576;38.242;2022-07-09T03:52:07;100011.13;;;24.65;48.64
58082;BME280;43876;55.576;38.242;2022-07-09T03:54:46;100014.53;;;24.85;48.57
58082;BME280;43876;55.576;38.242;2022-07-09T03:57:14;100006.16;;;25.08;48.16
58082;BME280;43876;55.576;38.242;2022-07-09T03:59:41;99996.44;;;25.55;47.05
58082;BME280;43876;55.576;38.242;2022-07-09T04:02:07;99996.34;;;27.22;43.49
58082;BME280;43876;55.576;38.242;2022-07-09T04:04:40;99964.25;;;29.06;38.85
58082;BME280;43876;55.576;38.242;2022-07-09T04:07:07;99992.06;;;30.40;36.57
58082;BME280;43876;55.576;38.242;2022-07-09T04:09:34;99980.09;;;31.57;34.53
58082;BME280;43876;55.576;38.242;2022-07-09T04:12:01;99990.94;;;32.42;32.57
58082;BME280;43876;55.576;38.242;2022-07-09T04:14:28;99996.41;;;33.35;30.80
58082;BME280;43876;55.576;38.242;2022-07-09T04:16:55;100001.63;;;33.67;30.27
58082;BME280;43876;55.576;38.242;2022-07-09T04:19:22;99989.81;;;33.28;30.52
58082;BME280;43876;55.576;38.242;2022-07-09T04:21:49;100000.38;;;31.83;32.66
58082;BME280;43876;55.576;38.242;2022-07-09T04:24:16;99996.19;;;30.91;34.54
58082;BME280;43876;55.576;38.242;2022-07-09T04:26:43;99981.19;;;30.17;36.04
58082;BME280;43876;55.576;38.242;2022-07-09T04:29:10;99978.94;;;29.39;37.39
58082;BME280;43876;55.576;38.242;2022-07-09T04:31:37;99970.84;;;28.89;37.51
58082;BME280;43876;55.576;38.242;2022-07-09T04:34:04;99979.53;;;28.67;38.19
58082;BME280;43876;55.576;38.242;2022-07-09T04:36:31;99982.78;;;28.72;38.57
58082;BME280;43876;55.576;38.242;2022-07-09T04:38:58;99972.13;;;29.09;38.14
58082;BME280;43876;55.576;38.242;2022-07-09T04:41:26;99983.47;;;29.38;37.50
58082;BME280;43876;55.576;38.242;2022-07-09T04:43:53;99989.44;;;29.55;37.52
58082;BME280;43876;55.576;38.242;2022-07-09T04:46:20;99982.53;;;29.27;37.54
58082;BME280;43876;55.576;38.242;2022-07-09T04:48:49;99979.16;;;29.36;38.17
58082;BME280;43876;55.576;38.242;2022-07-09T04:51:16;99944.38;;;29.46;37.53
58082;BME280;43876;55.576;38.242;2022-07-09T04:53:43;99982.03;;;29.83;36.70
58082;BME280;43876;55.576;38.242;2022-07-09T04:56:10;99985.16;;;29.76;36.92
58082;BME280;43876;55.576;38.242;2022-07-09T04:58:37;99979.47;;;29.68;37.15
58082;BME280;43876;55.576;38.242;2022-07-09T05:01:04;99957.53;;;29.37;36.84
58082;BME280;43876;55.576;38.242;2022-07-09T05:03:31;99983.59;;;29.24;37.22
58082;BME280;43876;55.576;38.242;2022-07-09T05:06:01;99975.81;;;28.83;37.56
58082;BME280;43876;55.576;38.242;2022-07-09T05:08:28;99956.66;;;28.49;38.52
58082;BME280;43876;55.576;38.242;2022-07-09T05:10:55;99960.25;;;28.22;39.38
58082;BME280;43876;55.576;38.242;2022-07-09T05:13:22;99955.28;;;27.76;40.53
58082;BME280;43876;55.576;38.242;2022-07-09T05:15:49;99953.25;;;27.11;42.11
58082;BME280;43876;55.576;38.242;2022-07-09T05:18:16;99942.84;;;26.63;42.53
58082;BME280;43876;55.576;38.242;2022-07-09T05:20:43;99950.25;;;26.44;44.14
58082;BME280;43876;55.576;38.242;2022-07-09T05:23:10;99931.22;;;25.73;45.50
58082;BME280;43876;55.576;38.242;2022-07-09T05:25:37;99928.47;;;25.11;47.31
58082;BME280;43876;55.576;38.242;2022-07-09T05:28:04;99917.19;;;24.40;49.45
58082;BME280;43876;55.576;38.242;2022-07-09T05:30:31;99893.44;;;23.83;51.12
58082;BME280;43876;55.576;38.242;2022-07-09T05:33:04;99909.91;;;23.37;54.09
58082;BME280;43876;55.576;38.242;2022-07-09T05:35:31;99911.75;;;23.18;54.91
58082;BME280;43876;55.576;38.242;2022-07-09T05:37:58;99922.41;;;23.18;55.40
58082;BME280;43876;55.576;38.242;2022-07-09T05:40:25;99918.16;;;23.14;54.90
58082;BME280;43876;55.576;38.242;2022-07-09T05:42:53;99925.03;;;22.99;55.86
58082;BME280;43876;55.576;38.242;2022-07-09T05:45:20;99904.97;;;22.92;55.35
58082;BME280;43876;55.576;38.242;2022-07-09T05:47:47;99919.06;;;22.94;56.13
58082;BME280;43876;55.576;38.242;2022-07-09T05:50:14;99925.50;;;23.08;56.37
58082;BME280;43876;55.576;38.242;2022-07-09T05:52:41;99930.38;;;23.37;56.62
58082;BME280;43876;55.576;38.242;2022-07-09T05:55:08;99915.13;;;23.58;55.67
58082;BME280;43876;55.576;38.242;2022-07-09T05:57:36;99936.28;;;23.97;56.30
58082;BME280;43876;55.576;38.242;2022-07-09T06:00:09;99934.16;;;24.21;54.75
58082;BME280;43876;55.576;38.242;2022-07-09T06:02:37;99937.63;;;24.23;54.31
58082;BME280;43876;55.576;38.242;2022-07-09T06:05:04;99929.69;;;24.22;55.94
58082;BME280;43876;55.576;38.242;2022-07-09T06:07:31;99938.66;;;24.21;56.20
58082;BME280;43876;55.576;38.242;2022-07-09T06:09:58;99931.81;;;24.15;57.11
58082;BME280;43876;55.576;38.242;2022-07-09T06:12:25;99954.59;;;24.22;57.48
58082;BME280;43876;55.576;38.242;2022-07-09T06:14:52;99953.50;;;24.26;57.24
58082;BME280;43876;55.576;38.242;2022-07-09T06:17:19;99955.50;;;24.39;58.08
58082;BME280;43876;55.576;38.242;2022-07-09T06:19:45;99961.03;;;24.53;55.97
58082;BME280;43876;55.576;38.242;2022-07-09T06:22:12;99963.31;;;24.77;56.56
58082;BME280;43876;55.576;38.242;2022-07-09T06:24:39;99957.88;;;25.11;55.08
58082;BME280;43876;55.576;38.242;2022-07-09T06:27:06;99952.38;;;25.46;55.09
58082;BME280;43876;55.576;38.242;2022-07-09T06:29:33;99958.72;;;25.60;53.47
58082;BME280;43876;55.576;38.242;2022-07-09T06:32:00;99937.69;;;25.69;54.75
58082;BME280;43876;55.576;38.242;2022-07-09T06:34:27;99960.81;;;26.17;51.57
58082;BME280;43876;55.576;38.242;2022-07-09T06:36:54;99955.81;;;26.55;49.75
58082;BME280;43876;55.576;38.242;2022-07-09T06:39:21;99950.78;;;26.93;48.35
58082;BME280;43876;55.576;38.242;2022-07-09T06:42:07;99945.88;;;27.00;47.78
58082;BME280;43876;55.576;38.242;2022-07-09T06:44:35;99918.50;;;26.95;47.19
58082;BME280;43876;55.576;38.242;2022-07-09T06:47:03;99930.34;;;27.20;46.39
58082;BME280;43876;55.576;38.242;2022-07-09T06:49:30;99921.97;;;26.68;46.94
58082;BME280;43876;55.576;38.242;2022-07-09T06:51:59;99907.34;;;26.01;48.00
58082;BME280;43876;55.576;38.242;2022-07-09T06:54:26;99899.03;;;25.59;49.41
58082;BME280;43876;55.576;38.242;2022-07-09T06:56:53;99899.09;;;25.27;51.03
58082;BME280;43876;55.576;38.242;2022-07-09T06:59:20;99884.59;;;25.16;52.35
58082;BME280;43876;55.576;38.242;2022-07-09T07:01:49;99887.94;;;25.03;51.69
58082;BME280;43876;55.576;38.242;2022-07-09T07:04:16;99864.25;;;25.13;52.74
58082;BME280;43876;55.576;38.242;2022-07-09T07:06:44;99878.16;;;25.20;54.30
58082;BME280;43876;55.576;38.242;2022-07-09T07:09:13;99856.66;;;25.05;54.97
58082;BME280;43876;55.576;38.242;2022-07-09T07:11:40;99877.09;;;25.06;55.02
58082;BME280;43876;55.576;38.242;2022-07-09T07:14:07;99878.91;;;24.90;55.30
58082;BME280;43876;55.576;38.242;2022-07-09T07:16:34;99862.41;;;24.66;55.53
58082;BME280;43876;55.576;38.242;2022-07-09T07:19:01;99883.28;;;24.75;56.24
58082;BME280;43876;55.576;38.242;2022-07-09T07:21:28;99871.88;;;24.71;55.38
58082;BME280;43876;55.576;38.242;2022-07-09T07:23:55;99881.03;;;24.99;55.27
58082;BME280;43876;55.576;38.242;2022-07-09T07:26:22;99883.38;;;25.05;53.69
58082;BME280;43876;55.576;38.242;2022-07-09T07:28:49;99884.94;;;25.09;54.03
58082;BME280;43876;55.576;38.242;2022-07-09T07:31:17;99875.19;;;25.08;53.89
58082;BME280;43876;55.576;38.242;2022-07-09T07:33:44;99906.75;;;25.33;54.18
58082;BME280;43876;55.576;38.242;2022-07-09T07:36:11;99903.22;;;25.33;53.63
58082;BME280;43876;55.576;38.242;2022-07-09T07:38:38;99897.34;;;25.42;53.83
58082;BME280;43876;55.576;38.242;2022-07-09T07:41:05;99897.50;;;25.55;53.67
58082;BME280;43876;55.576;38.242;2022-07-09T07:43:32;99846.19;;;25.48;52.82
58082;BME280;43876;55.576;38.242;2022-07-09T07:45:59;99886.91;;;25.53;52.37
58082;BME280;43876;55.576;38.242;2022-07-09T07:48:32;99851.13;;;25.40;52.24
58082;BME280;43876;55.576;38.242;2022-07-09T07:51:03;99885.72;;;25.73;52.64
58082;BME280;43876;55.576;38.242;2022-07-09T07:53:31;99885.03;;;25.70;52.33
58082;BME280;43876;55.576;38.242;2022-07-09T07:56:02;99873.69;;;25.66;51.52
58082;BME280;43876;55.576;38.242;2022-07-09T07:58:30;99864.47;;;25.56;52.02
58082;BME280;43876;55.576;38.242;2022-07-09T08:00:57;99898.63;;;25.51;51.76
58082;BME280;43876;55.576;38.242;2022-07-09T08:03:25;99892.59;;;25.31;53.09
58082;BME280;43876;55.576;38.242;2022-07-09T08:05:58;99868.81;;;24.95;53.43
58082;BME280;43876;55.576;38.242;2022-07-09T08:08:24;99893.09;;;24.75;53.76
58082;BME280;43876;55.576;38.242;2022-07-09T08:10:51;99910.81;;;24.60;55.56
58082;BME280;43876;55.576;38.242;2022-07-09T08:13:18;99918.78;;;24.44;55.76
58082;BME280;43876;55.576;38.242;2022-07-09T08:15:46;99932.31;;;24.39;56.56
58082;BME280;43876;55.576;38.242;2022-07-09T08:18:12;99947.25;;;24.43;56.12
58082;BME280;43876;55.576;38.242;2022-07-09T08:20:41;99953.47;;;24.44;55.32
58082;BME280;43876;55.576;38.242;2022-07-09T08:23:09;99964.84;;;24.47;55.25
58082;BME280;43876;55.576;38.242;2022-07-09T08:28:03;99942.09;;;24.40;54.24
58082;BME280;43876;55.576;38.242;2022-07-09T08:30:30;99953.16;;;24.32;54.43
58082;BME280;43876;55.576;38.242;2022-07-09T08:32:57;99973.88;;;24.45;54.67
58082;BME280;43876;55.576;38.242;2022-07-09T08:35:24;99963.97;;;24.47;53.74
58082;BME280;43876;55.576;38.242;2022-07-09T08:37:53;99980.16;;;24.44;54.14
58082;BME280;43876;55.576;38.242;2022-07-09T08:40:21;99976.41;;;24.48;54.24
58082;BME280;43876;55.576;38.242;2022-07-09T08:42:49;99967.69;;;24.44;54.42
58082;BME280;43876;55.576;38.242;2022-07-09T08:45:20;99969.38;;;24.45;53.96
58082;BME280;43876;55.576;38.242;2022-07-09T08:47:47;99967.75;;;24.43;54.37
58082;BME280;43876;55.576;38.242;2022-07-09T08:50:14;99975.50;;;24.47;54.76
58082;BME280;43876;55.576;38.242;2022-07-09T08:52:41;99942.31;;;24.36;55.06
58082;BME280;43876;55.576;38.242;2022-07-09T08:55:09;99939.59;;;24.37;54.67
58082;BME280;43876;55.576;38.242;2022-07-09T08:57:37;99989.50;;;24.70;54.74
58082;BME280;43876;55.576;38.242;2022-07-09T09:00:05;99978.44;;;24.93;54.33
58082;BME280;43876;55.576;38.242;2022-07-09T09:02:39;99963.19;;;25.11;54.34
58082;BME280;43876;55.576;38.242;2022-07-09T09:05:12;99958.50;;;25.32;53.70
58082;BME280;43876;55.576;38.242;2022-07-09T09:07:39;99962.88;;;25.18;54.15
58082;BME280;43876;55.576;38.242;2022-07-09T09:10:07;99967.22;;;25.20;53.88
58082;BME280;43876;55.576;38.242;2022-07-09T09:12:35;99972.00;;;25.13;54.06
58082;BME280;43876;55.576;38.242;2022-07-09T09:15:06;99965.34;;;25.05;54.62
58082;BME280;43876;55.576;38.242;2022-07-09T09:17:33;99953.16;;;24.83;54.67
58082;BME280;43876;55.576;38.242;2022-07-09T09:20:11;99978.97;;;24.67;55.20
58082;BME280;43876;55.576;38.242;2022-07-09T09:22:49;99985.84;;;24.55;55.32
58082;BME280;43876;55.576;38.242;2022-07-09T09:25:20;99993.84;;;24.38;55.67
58082;BME280;43876;55.576;38.242;2022-07-09T09:30:18;99990.38;;;24.01;56.56
58082;BME280;43876;55.576;38.242;2022-07-09T09:33:03;99983.59;;;23.75;58.14
58082;BME280;43876;55.576;38.242;2022-07-09T09:35:33;99994.44;;;23.71;58.83
58082;BME280;43876;55.576;38.242;2022-07-09T09:38:00;99987.03;;;23.59;59.59
58082;BME280;43876;55.576;38.242;2022-07-09T09:40:27;99967.41;;;23.43;59.95
58082;BME280;43876;55.576;38.242;2022-07-09T09:42:56;99955.72;;;23.26;60.73
58082;BME280;43876;55.576;38.242;2022-07-09T09:45:27;99959.25;;;23.08;60.77
58082;BME280;43876;55.576;38.242;2022-07-09T09:47:55;99962.66;;;22.72;61.77
58082;BME280;43876;55.576;38.242;2022-07-09T09:50:24;99955.53;;;22.33;62.66
58082;BME280;43876;55.576;38.242;2022-07-09T09:52:53;99938.72;;;21.90;64.20
58082;BME280;43876;55.576;38.242;2022-07-09T09:55:22;99934.94;;;21.74;65.27
58082;BME280;43876;55.576;38.242;2022-07-09T09:57:50;99910.72;;;21.37;66.09
58082;BME280;43876;55.576;38.242;2022-07-09T10:00:18;99938.31;;;21.33;67.56
58082;BME280;43876;55.576;38.242;2022-07-09T10:02:47;99924.09;;;21.12;68.77
58082;BME280;43876;55.576;38.242;2022-07-09T10:05:14;99921.94;;;21.00;68.79
58082;BME280;43876;55.576;38.242;2022-07-09T10:07:45;99900.22;;;20.89;69.25
58082;BME280;43876;55.576;38.242;2022-07-09T10:10:19;99894.53;;;20.76;70.50
58082;BME280;43876;55.576;38.242;2022-07-09T10:12:47;99865.38;;;20.51;71.78
58082;BME280;43876;55.576;38.242;2022-07-09T10:15:25;99880.31;;;20.53;72.35
58082;BME280;43876;55.576;38.242;2022-07-09T10:17:55;99890.91;;;20.53;73.74
58082;BME280;43876;55.576;38.242;2022-07-09T10:20:32;99890.91;;;20.53;73.30
58082;BME280;43876;55.576;38.242;2022-07-09T10:23:02;99880.16;;;20.58;73.79
58082;BME280;43876;55.576;38.242;2022-07-09T10:25:41;99870.13;;;20.66;73.88
58082;BME280;43876;55.576;38.242;2022-07-09T10:28:19;99866.00;;;20.59;72.84
58082;BME280;43876;55.576;38.242;2022-07-09T10:30:47;99867.34;;;20.69;72.05
58082;BME280;43876;55.576;38.242;2022-07-09T10:33:22;99863.25;;;20.84;69.33
58082;BME280;43876;55.576;38.242;2022-07-09T10:35:50;99866.81;;;20.83;67.78
58082;BME280;43876;55.576;38.242;2022-07-09T10:38:19;99862.94;;;20.92;66.76
58082;BME280;43876;55.576;38.242;2022-07-09T10:40:58;99833.06;;;20.86;66.02
58082;BME280;43876;55.576;38.242;2022-07-09T10:43:42;99834.38;;;20.98;65.14
58082;BME280;43876;55.576;38.242;2022-07-09T10:46:12;99816.94;;;21.13;63.48
58082;BME280;43876;55.576;38.242;2022-07-09T10:48:41;99805.88;;;21.46;62.33
58082;BME280;43876;55.576;38.242;2022-07-09T10:51:08;99839.59;;;22.07;61.90
58082;BME280;43876;55.576;38.242;2022-07-09T10:53:35;99808.59;;;22.83;60.38
58082;BME280;43876;55.576;38.242;2022-07-09T10:56:02;99799.84;;;23.35;58.63
58082;BME280;43876;55.576;38.242;2022-07-09T10:58:29;99827.31;;;23.55;58.08
58082;BME280;43876;55.576;38.242;2022-07-09T11:00:59;99810.59;;;23.34;58.81
58082;BME280;43876;55.576;38.242;2022-07-09T11:03:27;99798.75;;;23.39;58.22
58082;BME280;43876;55.576;38.242;2022-07-09T11:05:55;99816.16;;;23.46;58.71
58082;BME280;43876;55.576;38.242;2022-07-09T11:08:23;99808.34;;;23.61;57.92
58082;BME280;43876;55.576;38.242;2022-07-09T11:10:51;99787.22;;;23.74;58.22
58082;BME280;43876;55.576;38.242;2022-07-09T11:13:22;99746.38;;;23.90;58.11
58082;BME280;43876;55.576;38.242;2022-07-09T11:15:50;99813.69;;;24.29;57.97
58082;BME280;43876;55.576;38.242;2022-07-09T11:18:17;99790.19;;;24.36;57.01
58082;BME280;43876;55.576;38.242;2022-07-09T11:20:46;99789.03;;;24.57;56.72
58082;BME280;43876;55.576;38.242;2022-07-09T11:23:16;99800.03;;;24.67;56.36
58082;BME280;43876;55.576;38.242;2022-07-09T11:25:44;99788.84;;;24.92;55.57
58082;BME280;43876;55.576;38.242;2022-07-09T11:28:24;99788.69;;;24.63;56.03
58082;BME280;43876;55.576;38.242;2022-07-09T11:31:02;99774.44;;;24.63;56.35
58082;BME280;43876;55.576;38.242;2022-07-09T11:33:33;99765.50;;;24.48;55.34
58082;BME280;43876;55.576;38.242;2022-07-09T11:36:21;99763.38;;;24.21;55.64
58082;BME280;43876;55.576;38.242;2022-07-09T11:38:53;99741.09;;;24.22;56.54
58082;BME280;43876;55.576;38.242;2022-07-09T11:41:20;99743.94;;;24.35;56.32
58082;BME280;43876;55.576;38.242;2022-07-09T11:43:47;99746.94;;;24.45;56.39
58082;BME280;43876;55.576;38.242;2022-07-09T11:46:18;99740.78;;;24.60;56.12
58082;BME280;43876;55.576;38.242;2022-07-09T11:48:50;99692.91;;;24.57;55.73
58082;BME280;43876;55.576;38.242;2022-07-09T11:51:33;99731.41;;;24.99;55.03
58082;BME280;43876;55.576;38.242;2022-07-09T11:54:01;99746.66;;;25.13;54.53
58082;BME280;43876;55.576;38.242;2022-07-09T11:56:44;99715.50;;;24.98;53.20
58082;BME280;43876;55.576;38.242;2022-07-09T11:59:12;99704.59;;;24.70;53.26
58082;BME280;43876;55.576;38.242;2022-07-09T12:01:40;99668.53;;;24.31;52.67
58082;BME280;43876;55.576;38.242;2022-07-09T12:04:17;99687.13;;;24.33;52.48
58082;BME280;43876;55.576;38.242;2022-07-09T12:06:49;99717.94;;;24.23;53.08
58082;BME280;43876;55.576;38.242;2022-07-09T12:09:27;99708.63;;;24.14;54.68
58082;BME280;43876;55.576;38.242;2022-07-09T12:11:55;99723.00;;;24.11;53.89
58082;BME280;43876;55.576;38.242;2022-07-09T12:14:22;99727.19;;;24.00;53.40
58082;BME280;43876;55.576;38.242;2022-07-09T12:16:49;99694.22;;;23.85;53.02
58082;BME280;43876;55.576;38.242;2022-07-09T12:19:16;99718.63;;;23.77;53.16
58082;BME280;43876;55.576;38.242;2022-07-09T12:21:44;99706.09;;;23.44;54.69
58082;BME280;43876;55.576;38.242;2022-07-09T12:24:11;99692.22;;;23.38;52.10
58082;BME280;43876;55.576;38.242;2022-07-09T12:26:38;99693.78;;;23.42;52.14
58082;BME280;43876;55.576;38.242;2022-07-09T12:29:25;99667.88;;;23.28;54.26
58082;BME280;43876;55.576;38.242;2022-07-09T12:31:53;99697.31;;;23.60;54.42
58082;BME280;43876;55.576;38.242;2022-07-09T12:34:20;99708.25;;;23.71;54.08
58082;BME280;43876;55.576;38.242;2022-07-09T12:36:47;99672.47;;;23.42;53.76
58082;BME280;43876;55.576;38.242;2022-07-09T12:39:25;99710.06;;;23.53;53.67
58082;BME280;43876;55.576;38.242;2022-07-09T12:41:51;99716.97;;;23.57;53.90
58082;BME280;43876;55.576;38.242;2022-07-09T12:44:19;99710.97;;;23.54;54.31
58082;BME280;43876;55.576;38.242;2022-07-09T12:46:45;99701.53;;;23.46;55.32
58082;BME280;43876;55.576;38.242;2022-07-09T12:49:12;99697.72;;;23.52;54.85
58082;BME280;43876;55.576;38.242;2022-07-09T12:51:39;99709.63;;;23.62;54.96
58082;BME280;43876;55.576;38.242;2022-07-09T12:54:06;99664.69;;;23.55;53.84
58082;BME280;43876;55.576;38.242;2022-07-09T12:56:33;99688.09;;;23.83;54.10
58082;BME280;43876;55.576;38.242;2022-07-09T12:59:21;99656.44;;;23.59;52.65
58082;BME280;43876;55.576;38.242;2022-07-09T13:01:49;99686.72;;;23.76;52.82
58082;BME280;43876;55.576;38.242;2022-07-09T13:04:16;99678.47;;;23.80;51.14
58082;BME280;43876;55.576;38.242;2022-07-09T13:06:43;99676.69;;;23.97;50.51
58082;BME280;43876;55.576;38.242;2022-07-09T13:09:10;99699.19;;;24.24;49.38
58082;BME280;43876;55.576;38.242;2022-07-09T13:11:37;99674.19;;;24.25;49.35
58082;BME280;43876;55.576;38.242;2022-07-09T13:14:05;99677.19;;;24.19;49.56
58082;BME280;43876;55.576;38.242;2022-07-09T13:16:35;99691.66;;;24.15;49.39